Academy, New Jersey
Current Conditions -  °F | °C
As of 5:51 PM on Tuesday 25 Nov 2014 (Local Time) from KEWR Reporting Station
Broken Clouds Broken Clouds  
Wind Chill: 46°   Ceiling: 25000
Heat Index: 49°   Visibility: 10mi
Dew Point: 31°   Wind: 7mph
Humidity: 50%   Direction: 220°SW
Pressure: 30.04"   Gusts: NA
Location:  40.7334°N, 74.1735°W
Report Text: KEWR 252251Z 22006KT 10SM FEW060 SCT150 BKN250 09/M01 A3004 RMK AO2 SLP172 T00941006 $
Loading
Personal Weather Stations






























Interactive Weather Map New forecast layout! Learn more

10-Day Weather Forecast

Advertisements
Track Severe Weather on mobile